createdAt,value
2019-02-21T00:01:51.131Z,17.45
2019-02-21T00:04:19.798Z,15.93
2019-02-21T00:06:48.497Z,17.23
2019-02-21T00:09:17.204Z,16.87
2019-02-21T00:11:45.903Z,17.45
2019-02-21T00:14:14.691Z,14.85
2019-02-21T00:16:43.330Z,14.27
2019-02-21T00:19:12.007Z,18.57
2019-02-21T00:21:40.737Z,13.00
2019-02-21T00:24:09.453Z,16.33
2019-02-21T00:26:38.123Z,18.10
2019-02-21T00:29:06.795Z,17.23
2019-02-21T00:31:35.520Z,14.47
2019-02-21T00:34:04.204Z,18.60
2019-02-21T00:36:32.917Z,16.23
2019-02-21T00:39:01.606Z,16.93
2019-02-21T00:41:31.957Z,15.33
2019-02-21T00:44:00.653Z,16.60
2019-02-21T00:46:29.303Z,16.87
2019-02-21T00:48:57.965Z,16.02
2019-02-21T00:51:26.617Z,20.30
2019-02-21T00:53:55.368Z,16.63
2019-02-21T00:56:24.045Z,19.65
2019-02-21T00:58:52.783Z,20.50
2019-02-21T01:01:23.027Z,14.73
2019-02-21T01:03:51.683Z,17.13
2019-02-21T01:06:20.402Z,18.50
2019-02-21T01:08:49.383Z,15.43
2019-02-21T01:11:18.074Z,14.97
2019-02-21T01:13:46.805Z,17.23
2019-02-21T01:16:15.629Z,15.93
2019-02-21T01:18:44.292Z,17.52
2019-02-21T01:21:12.932Z,17.10
2019-02-21T01:23:41.608Z,18.42
2019-02-21T01:26:10.380Z,18.00
2019-02-21T01:28:39.037Z,20.65
2019-02-21T01:31:08.751Z,17.60
2019-02-21T01:33:37.418Z,19.27
2019-02-21T01:36:06.172Z,14.93
2019-02-21T01:38:34.833Z,17.27
2019-02-21T01:41:03.577Z,22.93
2019-02-21T01:43:32.295Z,15.60
2019-02-21T01:46:01.083Z,16.00
2019-02-21T01:48:29.908Z,18.48
2019-02-21T01:50:58.634Z,18.17
2019-02-21T01:53:27.307Z,18.30
2019-02-21T01:55:56.034Z,15.83
2019-02-21T01:58:24.721Z,15.58
2019-02-21T02:00:53.427Z,19.62
2019-02-21T02:03:22.089Z,19.10
2019-02-21T02:05:50.799Z,16.32
2019-02-21T02:08:19.456Z,19.30
2019-02-21T02:10:49.193Z,21.48
2019-02-21T02:13:24.549Z,20.25
2019-02-21T02:15:48.205Z,19.60
2019-02-21T02:18:16.979Z,20.35
2019-02-21T02:20:45.640Z,20.35
2019-02-21T02:23:14.298Z,20.57
2019-02-21T02:25:43.069Z,19.98
2019-02-21T02:28:11.649Z,19.00
2019-02-21T02:30:40.298Z,23.10
2019-02-21T02:33:08.943Z,20.72
2019-02-21T02:35:37.617Z,21.67
2019-02-21T02:38:06.435Z,18.90
2019-02-21T02:40:35.101Z,18.83
2019-02-21T02:43:03.761Z,16.62
2019-02-21T02:45:32.448Z,19.47
2019-02-21T02:48:01.239Z,19.95
2019-02-21T02:50:29.887Z,19.57
2019-02-21T02:52:58.623Z,22.13
2019-02-21T02:55:27.347Z,20.33
2019-02-21T02:57:56.005Z,19.20
2019-02-21T03:00:24.679Z,21.20
2019-02-21T03:02:53.351Z,21.60
2019-02-21T03:05:22.029Z,19.32
2019-02-21T03:07:50.711Z,17.80
2019-02-21T03:10:19.368Z,18.90
2019-02-21T03:12:48.095Z,21.70
2019-02-21T03:15:16.766Z,18.57
2019-02-21T03:17:45.433Z,19.80
2019-02-21T03:20:14.087Z,15.88
2019-02-21T03:22:42.826Z,19.30
2019-02-21T03:25:11.475Z,20.65
2019-02-21T03:27:40.149Z,18.40
2019-02-21T03:30:12.202Z,20.50
2019-02-21T03:32:39.427Z,18.05
2019-02-21T03:35:08.294Z,17.77
2019-02-21T03:37:36.968Z,19.17
2019-02-21T03:40:05.937Z,20.53
2019-02-21T03:42:34.675Z,22.87
2019-02-21T03:45:03.414Z,19.23
2019-02-21T03:47:32.136Z,20.40
2019-02-21T03:50:00.863Z,17.52
2019-02-21T03:52:29.529Z,18.10
2019-02-21T03:54:59.184Z,22.02
2019-02-21T03:57:27.915Z,20.52
2019-02-21T03:59:56.537Z,20.43
2019-02-21T04:02:25.249Z,20.47
2019-02-21T04:04:53.901Z,20.12
2019-02-21T04:07:25.765Z,20.30
2019-02-21T04:09:54.433Z,20.17
2019-02-21T04:12:23.208Z,20.88
2019-02-21T04:14:51.955Z,23.03
2019-02-21T04:17:20.593Z,20.65
2019-02-21T04:19:49.344Z,18.83
2019-02-21T04:22:18.081Z,18.67
2019-02-21T04:24:46.734Z,19.35
2019-02-21T04:27:15.456Z,18.60
2019-02-21T04:29:44.129Z,18.25
2019-02-21T04:32:16.935Z,18.35
2019-02-21T04:34:43.270Z,21.65
2019-02-21T04:37:12.009Z,18.15
2019-02-21T04:39:40.688Z,17.63
2019-02-21T04:42:09.457Z,17.43
2019-02-21T04:44:38.243Z,21.75
2019-02-21T04:47:06.893Z,23.18
2019-02-21T04:49:35.588Z,19.82
2019-02-21T04:52:04.305Z,21.13
2019-02-21T04:54:32.998Z,19.60
2019-02-21T04:57:01.717Z,20.37
2019-02-21T04:59:30.390Z,20.50
2019-02-21T05:01:59.068Z,19.70
2019-02-21T05:04:27.744Z,21.70
2019-02-21T05:06:56.505Z,18.32
2019-02-21T05:09:27.121Z,20.73
2019-02-21T05:11:55.615Z,20.40
2019-02-21T05:14:24.438Z,18.27
2019-02-21T05:16:54.090Z,20.00
2019-02-21T05:19:22.763Z,20.52
2019-02-21T05:21:51.537Z,20.57
2019-02-21T05:24:20.446Z,23.20
2019-02-21T05:26:56.215Z,21.62
2019-02-21T05:29:24.918Z,22.35
2019-02-21T05:32:04.113Z,20.80
2019-02-21T05:34:40.348Z,21.90
2019-02-21T05:37:21.377Z,22.22
2019-02-21T05:40:21.356Z,20.82
2019-02-21T05:43:18.140Z,18.98
2019-02-21T05:46:18.047Z,19.17
2019-02-21T05:49:11.614Z,20.45
2019-02-21T05:51:47.576Z,18.43
2019-02-21T05:54:25.790Z,16.82
2019-02-21T05:56:59.725Z,21.07
2019-02-21T06:00:02.817Z,19.57
2019-02-21T06:02:38.441Z,21.27
2019-02-21T06:05:19.503Z,19.57
2019-02-21T06:07:57.696Z,17.65
2019-02-21T06:10:51.551Z,19.02
2019-02-21T06:13:27.993Z,20.82
2019-02-21T06:16:21.747Z,21.65
2019-02-21T06:19:10.325Z,22.67
2019-02-21T06:22:07.660Z,20.23
2019-02-21T06:24:35.653Z,19.77
2019-02-21T06:27:18.643Z,19.62
2019-02-21T06:30:12.817Z,21.75
2019-02-21T06:32:41.651Z,18.30
2019-02-21T06:35:10.508Z,22.97
2019-02-21T06:37:39.253Z,18.23
2019-02-21T06:40:08.026Z,20.57
2019-02-21T06:42:36.701Z,19.57
2019-02-21T06:45:05.534Z,18.50
2019-02-21T06:47:34.278Z,19.73
2019-02-21T06:50:03.010Z,23.80
2019-02-21T06:52:31.782Z,20.17
2019-02-21T06:55:02.207Z,17.32
2019-02-21T06:57:30.827Z,23.07
2019-02-21T06:59:59.480Z,19.77
2019-02-21T07:02:28.325Z,20.60
2019-02-21T07:04:57.209Z,24.02
2019-02-21T07:07:25.897Z,19.13
2019-02-21T07:09:54.606Z,19.73
2019-02-21T07:12:23.326Z,21.42
2019-02-21T07:14:52.042Z,18.10
2019-02-21T07:17:20.699Z,19.27
2019-02-21T07:19:49.414Z,20.03
2019-02-21T07:22:22.030Z,18.92
2019-02-21T07:24:53.897Z,18.67
2019-02-21T07:27:21.790Z,20.50
2019-02-21T07:29:50.624Z,19.57
2019-02-21T07:32:19.287Z,18.63
2019-02-21T07:34:48.031Z,20.05
2019-02-21T07:37:19.011Z,19.98
2019-02-21T07:39:47.213Z,23.20
2019-02-21T07:42:15.950Z,19.07
2019-02-21T07:44:45.449Z,17.50
2019-02-21T07:47:14.343Z,18.50
2019-02-21T07:49:43.083Z,18.92
2019-02-21T07:52:11.669Z,20.48
2019-02-21T07:54:40.348Z,20.05
2019-02-21T07:57:09.008Z,18.17
2019-02-21T07:59:37.693Z,19.40
2019-02-21T08:02:06.434Z,20.63
2019-02-21T08:04:36.966Z,19.70
2019-02-21T08:07:05.553Z,20.73
2019-02-21T08:09:34.350Z,18.05
2019-02-21T08:12:02.970Z,18.30
2019-02-21T08:14:31.633Z,21.63
2019-02-21T08:17:00.276Z,22.17
2019-02-21T08:19:30.954Z,19.73
2019-02-21T08:22:00.317Z,17.62
2019-02-21T08:24:29.075Z,18.85
2019-02-21T08:26:57.735Z,18.95
2019-02-21T08:29:26.423Z,20.03
2019-02-21T08:31:55.086Z,20.30
2019-02-21T08:34:31.332Z,18.07
2019-02-21T08:37:00.069Z,18.55
2019-02-21T08:39:28.828Z,19.50
2019-02-21T08:41:57.533Z,19.12
2019-02-21T08:44:28.803Z,22.73
2019-02-21T08:46:56.626Z,19.65
2019-02-21T08:49:25.646Z,23.90
2019-02-21T08:51:55.169Z,21.27
2019-02-21T08:54:24.226Z,19.90
2019-02-21T08:56:53.146Z,20.80
2019-02-21T08:59:22.100Z,16.50
2019-02-21T09:01:50.973Z,17.55
2019-02-21T09:04:27.346Z,22.67
2019-02-21T09:06:50.453Z,20.35
2019-02-21T09:09:19.480Z,19.85
2019-02-21T09:11:48.576Z,19.92
2019-02-21T09:14:19.202Z,19.60
2019-02-21T09:16:48.090Z,18.70
2019-02-21T09:19:16.975Z,23.00
2019-02-21T09:21:45.917Z,18.37
2019-02-21T09:24:26.827Z,19.23
2019-02-21T09:26:45.526Z,21.50
2019-02-21T09:29:14.391Z,21.80
2019-02-21T09:31:43.325Z,21.75
2019-02-21T09:34:20.829Z,23.55
2019-02-21T09:36:42.964Z,25.40
2019-02-21T09:39:11.903Z,21.52
2019-02-21T09:41:40.845Z,19.73
2019-02-21T09:44:09.906Z,21.55
2019-02-21T09:46:40.614Z,21.27
2019-02-21T09:49:09.638Z,23.75
2019-02-21T09:51:38.550Z,21.50
2019-02-21T09:54:07.421Z,23.67
2019-02-21T09:56:36.374Z,22.32
2019-02-21T09:59:05.284Z,19.52
2019-02-21T10:01:34.313Z,22.10
2019-02-21T10:04:03.252Z,21.57
2019-02-21T10:06:32.174Z,25.60
2019-02-21T10:09:01.151Z,21.65
2019-02-21T10:11:31.656Z,21.90
2019-02-21T10:14:00.627Z,24.23
2019-02-21T10:16:32.554Z,23.50
2019-02-21T10:19:02.678Z,20.08
2019-02-21T10:21:31.709Z,22.32
2019-02-21T10:24:00.788Z,21.20
2019-02-21T10:26:29.714Z,22.25
2019-02-21T10:28:58.659Z,20.23
2019-02-21T10:31:27.612Z,21.65
2019-02-21T10:33:56.562Z,19.00
2019-02-21T10:36:25.490Z,21.25
2019-02-21T10:38:54.412Z,22.57
2019-02-21T10:41:23.282Z,24.33
2019-02-21T10:43:52.193Z,19.55
2019-02-21T10:46:21.111Z,20.10
2019-02-21T10:48:50.052Z,19.77
2019-02-21T10:51:19.014Z,22.57
2019-02-21T10:53:47.897Z,26.25
2019-02-21T10:56:16.826Z,23.23
2019-02-21T10:58:45.710Z,22.80
2019-02-21T11:01:14.585Z,22.53
2019-02-21T11:03:43.482Z,18.87
2019-02-21T11:06:12.502Z,23.50
2019-02-21T11:08:41.308Z,21.63
2019-02-21T11:11:10.276Z,20.10
2019-02-21T11:13:39.226Z,23.80
2019-02-21T11:16:08.135Z,20.07
2019-02-21T11:18:37.293Z,20.50
2019-02-21T11:21:06.243Z,20.08
2019-02-21T11:23:35.203Z,22.63
2019-02-21T11:26:04.146Z,23.83
2019-02-21T11:28:33.106Z,21.33
2019-02-21T11:31:02.048Z,20.87
2019-02-21T11:33:31.042Z,24.03
2019-02-21T11:36:00.080Z,22.55
2019-02-21T11:38:29.129Z,27.07
2019-02-21T11:40:58.038Z,26.23
2019-02-21T11:43:27.048Z,23.80
2019-02-21T11:45:57.405Z,20.30
2019-02-21T11:48:26.788Z,23.65
2019-02-21T11:50:55.682Z,21.87
2019-02-21T11:53:24.578Z,20.20
2019-02-21T11:55:53.572Z,24.20
2019-02-21T11:58:22.528Z,24.67
2019-02-21T12:00:51.580Z,23.80
2019-02-21T12:03:21.383Z,24.30
2019-02-21T12:05:50.585Z,24.10
2019-02-21T12:08:19.884Z,26.90
2019-02-21T12:10:50.876Z,26.00
2019-02-21T12:13:19.455Z,24.43
2019-02-21T12:15:48.477Z,24.30
2019-02-21T12:18:17.652Z,21.23
2019-02-21T12:20:47.636Z,24.13
2019-02-21T12:23:17.822Z,24.35
2019-02-21T12:25:46.878Z,22.90
2019-02-21T12:28:15.795Z,19.67
2019-02-21T12:30:44.916Z,28.13
2019-02-21T12:33:13.930Z,29.40
2019-02-21T12:35:43.192Z,24.52
2019-02-21T12:38:12.151Z,23.03
2019-02-21T12:40:41.187Z,23.30
2019-02-21T12:43:10.130Z,29.20
2019-02-21T12:45:39.033Z,23.02
2019-02-21T12:48:07.939Z,25.80
2019-02-21T12:50:44.241Z,24.80
2019-02-21T12:53:07.587Z,25.68
2019-02-21T12:55:36.628Z,25.45
2019-02-21T12:58:05.432Z,23.77
2019-02-21T13:00:36.574Z,28.17
2019-02-21T13:03:04.840Z,24.60
2019-02-21T13:05:41.206Z,25.60
2019-02-21T13:08:03.891Z,30.27
2019-02-21T13:10:34.876Z,27.37
2019-02-21T13:13:02.962Z,26.27
2019-02-21T13:15:31.667Z,25.50
2019-02-21T13:18:00.368Z,22.32
2019-02-21T13:20:29.039Z,28.52
2019-02-21T13:22:57.770Z,23.77
2019-02-21T13:25:26.415Z,23.18
2019-02-21T13:27:55.147Z,23.18
2019-02-21T13:30:23.841Z,25.53
2019-02-21T13:32:53.557Z,25.60
2019-02-21T13:35:22.285Z,25.82
2019-02-21T13:37:50.957Z,27.25
2019-02-21T13:40:21.197Z,24.65
2019-02-21T13:42:50.186Z,28.05
2019-02-21T13:45:18.937Z,25.25
2019-02-21T13:47:47.878Z,27.15
2019-02-21T13:50:16.595Z,26.63
2019-02-21T13:52:45.315Z,24.27
2019-02-21T13:55:14.055Z,24.02
2019-02-21T13:57:42.743Z,25.95
2019-02-21T14:00:12.714Z,24.45
2019-02-21T14:02:41.371Z,26.60
2019-02-21T14:05:10.056Z,33.23
2019-02-21T14:07:38.809Z,24.57
2019-02-21T14:10:08.005Z,24.17
2019-02-21T14:12:36.720Z,25.83
2019-02-21T14:15:05.748Z,28.90
2019-02-21T14:17:34.467Z,24.20
2019-02-21T14:20:03.251Z,23.10
2019-02-21T14:22:32.028Z,24.90
2019-02-21T14:25:00.763Z,19.53
2019-02-21T14:27:31.751Z,26.30
2019-02-21T14:29:59.795Z,21.82
2019-02-21T14:32:28.525Z,26.42
2019-02-21T14:34:57.201Z,20.45
2019-02-21T14:37:25.844Z,21.80
2019-02-21T14:39:54.611Z,23.27
2019-02-21T14:42:23.444Z,22.20
2019-02-21T14:44:52.076Z,19.75
2019-02-21T14:47:20.779Z,22.03
2019-02-21T14:49:49.448Z,20.27
2019-02-21T14:52:18.103Z,17.32
2019-02-21T14:54:46.792Z,17.67
2019-02-21T14:57:15.614Z,18.80
2019-02-21T14:59:44.835Z,19.93
2019-02-21T15:02:13.757Z,17.90
2019-02-21T15:04:42.592Z,16.83
2019-02-21T15:07:11.408Z,18.55
2019-02-21T15:09:40.150Z,19.20
2019-02-21T15:12:11.606Z,18.57
2019-02-21T15:14:39.490Z,17.65
2019-02-21T15:17:08.214Z,18.57
2019-02-21T15:19:37.006Z,18.70
2019-02-21T15:22:05.744Z,18.35
2019-02-21T15:24:34.543Z,17.80
2019-02-21T15:27:08.589Z,16.63
2019-02-21T15:29:33.620Z,18.37
2019-02-21T15:32:10.704Z,16.30
2019-02-21T15:34:33.693Z,14.43
2019-02-21T15:37:02.405Z,14.00
2019-02-21T15:39:31.229Z,13.47
2019-02-21T15:42:00.065Z,12.53
2019-02-21T15:44:28.811Z,12.70
2019-02-21T15:46:57.531Z,12.82
2019-02-21T15:49:26.251Z,11.97
2019-02-21T15:51:55.017Z,11.05
2019-02-21T15:54:23.761Z,10.08
2019-02-21T15:56:52.441Z,12.00
2019-02-21T15:59:21.278Z,10.03
2019-02-21T16:01:49.993Z,8.77
2019-02-21T16:04:18.660Z,8.08
2019-02-21T16:06:51.863Z,7.35
2019-02-21T16:09:17.756Z,8.20
2019-02-21T16:11:46.435Z,8.47
2019-02-21T16:14:15.215Z,7.63
2019-02-21T16:16:43.975Z,6.60
2019-02-21T16:19:12.778Z,7.25
2019-02-21T16:21:41.551Z,4.83
2019-02-21T16:24:11.269Z,5.45
2019-02-21T16:26:40.045Z,5.50
2019-02-21T16:29:08.774Z,4.65
2019-02-21T16:31:37.503Z,5.37
2019-02-21T16:34:06.265Z,5.17
2019-02-21T16:36:34.987Z,4.35
2019-02-21T16:39:04.610Z,5.70
2019-02-21T16:41:36.613Z,3.70
2019-02-21T16:44:07.115Z,4.55
2019-02-21T16:46:36.057Z,5.85
2019-02-21T16:49:04.808Z,4.55
2019-02-21T16:51:33.485Z,3.50
2019-02-21T16:54:02.182Z,4.20
2019-02-21T16:56:30.915Z,3.92
2019-02-21T16:58:59.593Z,4.33
2019-02-21T17:01:29.989Z,4.83
2019-02-21T17:03:58.779Z,4.23
2019-02-21T17:06:27.549Z,3.83
2019-02-21T17:08:56.311Z,4.40
2019-02-21T17:11:25.057Z,7.23
2019-02-21T17:13:53.759Z,4.43
2019-02-21T17:16:22.489Z,4.80
2019-02-21T17:18:51.266Z,6.10
2019-02-21T17:21:21.100Z,5.22
2019-02-21T17:23:49.972Z,5.07
2019-02-21T17:26:18.723Z,5.22
2019-02-21T17:28:47.421Z,5.30
2019-02-21T17:31:16.160Z,5.17
2019-02-21T17:33:44.869Z,6.35
2019-02-21T17:36:13.653Z,6.20
2019-02-21T17:38:42.314Z,6.53
2019-02-21T17:41:11.040Z,6.55
2019-02-21T17:43:39.792Z,8.87
2019-02-21T17:46:08.548Z,8.03
2019-02-21T17:48:37.268Z,7.67
2019-02-21T17:51:06.007Z,8.87
2019-02-21T17:53:34.719Z,9.43
2019-02-21T17:56:03.455Z,8.43
2019-02-21T17:58:32.229Z,9.23
2019-02-21T18:01:01.059Z,10.58
2019-02-21T18:03:30.851Z,9.80
2019-02-21T18:05:59.564Z,11.73
2019-02-21T18:08:28.235Z,9.70
2019-02-21T18:10:56.980Z,12.75
2019-02-21T18:13:25.800Z,13.47
2019-02-21T18:15:54.527Z,12.30
2019-02-21T18:18:23.212Z,13.45
2019-02-21T18:20:51.898Z,12.60
2019-02-21T18:23:20.589Z,11.50
2019-02-21T18:25:51.446Z,12.18
2019-02-21T18:28:20.192Z,13.78
2019-02-21T18:30:48.854Z,12.30
2019-02-21T18:33:17.639Z,13.13
2019-02-21T18:35:46.533Z,14.10
2019-02-21T18:38:15.309Z,12.77
2019-02-21T18:40:44.048Z,13.68
2019-02-21T18:43:12.809Z,15.40
2019-02-21T18:45:41.632Z,11.93
2019-02-21T18:48:10.453Z,15.40
2019-02-21T18:50:39.226Z,15.95
2019-02-21T18:53:07.982Z,11.93
2019-02-21T18:55:36.646Z,14.00
2019-02-21T18:58:05.423Z,12.90
2019-02-21T19:00:34.217Z,13.75
2019-02-21T19:03:02.960Z,13.18
2019-02-21T19:05:36.025Z,11.10
2019-02-21T19:08:05.330Z,13.75
2019-02-21T19:10:32.507Z,12.73
2019-02-21T19:13:01.366Z,13.43
2019-02-21T19:15:31.090Z,14.17
2019-02-21T19:17:59.930Z,13.60
2019-02-21T19:20:28.619Z,16.17
2019-02-21T19:22:57.272Z,15.38
2019-02-21T19:25:26.034Z,13.17
2019-02-21T19:27:54.813Z,13.53
2019-02-21T19:30:26.935Z,16.03
2019-02-21T19:32:55.708Z,15.43
2019-02-21T19:35:24.644Z,15.88
2019-02-21T19:37:53.850Z,18.53
2019-02-21T19:40:22.556Z,16.30
2019-02-21T19:42:51.285Z,17.27
2019-02-21T19:45:19.978Z,21.25
2019-02-21T19:47:48.682Z,18.37
2019-02-21T19:50:17.357Z,17.32
2019-02-21T19:52:46.259Z,18.37
2019-02-21T19:55:16.109Z,19.95
2019-02-21T19:57:44.865Z,17.77
2019-02-21T20:00:15.389Z,19.45
2019-02-21T20:02:44.252Z,20.88
2019-02-21T20:05:13.166Z,18.30
2019-02-21T20:07:42.000Z,18.12
2019-02-21T20:10:11.663Z,21.13
2019-02-21T20:12:40.352Z,19.20
2019-02-21T20:15:09.217Z,18.62
2019-02-21T20:17:37.963Z,20.40
2019-02-21T20:20:07.625Z,22.02
2019-02-21T20:22:36.302Z,19.92
2019-02-21T20:25:05.257Z,18.40
2019-02-21T20:27:33.994Z,20.85
2019-02-21T20:30:02.660Z,18.87
2019-02-21T20:32:32.559Z,20.50
2019-02-21T20:35:01.384Z,21.00
2019-02-21T20:37:30.216Z,18.50
2019-02-21T20:39:59.039Z,21.17
2019-02-21T20:42:27.862Z,22.22
2019-02-21T20:44:56.869Z,22.73
2019-02-21T20:47:25.595Z,22.67
2019-02-21T20:49:54.311Z,22.93
2019-02-21T20:52:23.043Z,24.52
2019-02-21T20:54:51.753Z,23.55
2019-02-21T20:57:20.455Z,23.60
2019-02-21T20:59:49.226Z,23.97
2019-02-21T21:02:17.898Z,24.72
2019-02-21T21:04:46.723Z,25.17
2019-02-21T21:07:24.767Z,27.50
2019-02-21T21:09:45.780Z,25.53
2019-02-21T21:12:14.543Z,30.23
2019-02-21T21:14:43.204Z,26.57
2019-02-21T21:17:11.893Z,27.07
2019-02-21T21:19:40.725Z,28.40
2019-02-21T21:22:09.530Z,25.00
2019-02-21T21:24:38.258Z,29.52
2019-02-21T21:27:09.629Z,28.10
2019-02-21T21:29:38.381Z,32.07
2019-02-21T21:32:07.106Z,28.00
2019-02-21T21:34:35.820Z,31.77
2019-02-21T21:37:04.568Z,32.37
2019-02-21T21:39:33.288Z,29.87
2019-02-21T21:42:02.163Z,29.30
2019-02-21T21:44:31.506Z,30.87
2019-02-21T21:47:00.375Z,29.77
2019-02-21T21:49:29.205Z,27.63
2019-02-21T21:51:57.951Z,29.15
2019-02-21T21:54:27.254Z,30.97
2019-02-21T21:56:57.060Z,30.27
2019-02-21T21:59:25.745Z,31.52
2019-02-21T22:01:54.483Z,32.40
2019-02-21T22:04:23.228Z,29.43
2019-02-21T22:06:51.886Z,31.23
2019-02-21T22:09:20.851Z,30.47
2019-02-21T22:11:49.726Z,30.75
2019-02-21T22:14:18.576Z,26.90
2019-02-21T22:16:47.343Z,31.13
2019-02-21T22:19:16.098Z,32.27
2019-02-21T22:21:44.839Z,31.27
2019-02-21T22:24:13.542Z,32.30
2019-02-21T22:26:42.268Z,31.20
2019-02-21T22:29:12.014Z,28.87
2019-02-21T22:31:40.778Z,28.52
2019-02-21T22:34:09.527Z,33.20
2019-02-21T22:36:38.339Z,27.62
2019-02-21T22:39:15.988Z,29.50
2019-02-21T22:41:37.920Z,29.23
2019-02-21T22:44:06.587Z,28.25
2019-02-21T22:46:35.264Z,29.40
2019-02-21T22:49:03.954Z,26.55
2019-02-21T22:51:32.691Z,28.12
2019-02-21T22:54:01.414Z,25.83
2019-02-21T22:56:30.210Z,26.95
2019-02-21T22:58:58.935Z,23.93
2019-02-21T23:01:29.439Z,28.25
2019-02-21T23:04:00.063Z,28.73
2019-02-21T23:06:47.926Z,26.77
2019-02-21T23:09:27.649Z,28.12
2019-02-21T23:11:52.230Z,23.93
2019-02-21T23:14:20.913Z,27.10
2019-02-21T23:16:49.747Z,26.68
2019-02-21T23:19:18.495Z,29.05
2019-02-21T23:21:47.199Z,23.25
2019-02-21T23:24:15.896Z,27.82
2019-02-21T23:26:44.694Z,29.48
2019-02-21T23:29:13.489Z,26.70
2019-02-21T23:31:42.137Z,26.65
2019-02-21T23:34:16.868Z,27.75
2019-02-21T23:36:45.541Z,30.70
2019-02-21T23:39:14.181Z,31.82
2019-02-21T23:41:43.037Z,28.15
2019-02-21T23:44:11.814Z,29.50
2019-02-21T23:46:40.541Z,28.37
2019-02-21T23:49:09.294Z,27.43
2019-02-21T23:51:38.071Z,27.02
2019-02-21T23:54:06.763Z,29.75
2019-02-21T23:56:35.424Z,28.25
2019-02-21T23:59:04.161Z,29.10
